Погода Герлатовона 2 недели

Великопольское воеводство, Польша

19 июля-01 августа
  • 19июля
    Сегодня
    +15°
    +26°
    Небольшая облачность
    ВремяПогодаТемператураВлажностьДавлениеВетер, м/сВероятность осадков
    02:00Облачно с прояснениями+17°C83 %759 мм2.4 м/с2 %
    05:00Небольшая облачность+16°C92 %759 мм1.8 м/с2 %
    08:00Ясно и безоблачно+19°C79 %759 мм1.5 м/с2 %
    11:00Небольшая облачность+23°C60 %758 мм0.4 м/с2 %
    14:00Небольшая облачность+25°C52 %758 мм0.9 м/с2 %
    17:00Небольшая облачность+26°C49 %756 мм1.6 м/с2 %
    20:00Практически безоблачно+24°C68 %756 мм1.1 м/с2 %
    23:00Практически безоблачно+19°C78 %755 мм1.8 м/с2 %
  • 20июля
    Суббота
    +16°
    +28°
    Облачно с прояснениями
    ВремяПогодаТемператураВлажностьДавлениеВетер, м/сВероятность осадков
    02:00Облачно с прояснениями+16°C84 %755 мм1.9 м/с2 %
    05:00Облачно с прояснениями+16°C88 %754 мм1.9 м/с2 %
    08:00Небольшая облачность+21°C69 %753 мм0.6 м/с2 %
    11:00Облачно с прояснениями+25°C51 %753 мм0.1 м/с2 %
    14:00Облачно с прояснениями+27°C42 %752 мм0.3 м/с2 %
    17:00Небольшая облачность+27°C38 %751 мм0.4 м/с2 %
    20:00Облачно с прояснениями+26°C58 %750 мм1.1 м/с2 %
    23:00Ясно и безоблачно+21°C61 %750 мм2.3 м/с2 %
  • 21июля
    Воскресенье
    +17°
    +29°
    Ясно и безоблачно
    ВремяПогодаТемператураВлажностьДавлениеВетер, м/сВероятность осадков
    02:00Ясно и безоблачно+18°C70 %750 мм2.0 м/с2 %
    05:00Ясно и безоблачно+16°C83 %749 мм1.9 м/с2 %
    08:00Ясно и безоблачно+22°C65 %749 мм1.6 м/с2 %
    11:00Ясно и безоблачно+26°C45 %749 мм1.8 м/с2 %
    14:00Ясно и безоблачно+28°C39 %749 мм1.8 м/с2 %
    17:00Ясно и безоблачно+29°C38 %748 мм1.4 м/с2 %
    20:00Ясно и безоблачно+26°C56 %748 мм1.8 м/с2 %
    23:00Небольшая облачность+21°C61 %748 мм2.7 м/с2 %
  • 22июля
    Понедельник
    +15°
    +30°
    Ясно и безоблачно
    ВремяПогодаТемператураВлажностьДавлениеВетер, м/сВероятность осадков
    02:00Практически безоблачно+20°C69 %748 мм3.0 м/с2 %
    05:00Ясно и безоблачно+18°C83 %748 мм1.7 м/с2 %
    08:00Ясно и безоблачно+22°C71 %749 мм1.2 м/с16 %
    11:00Практически безоблачно+27°C43 %749 мм1.5 м/с29 %
    14:00Ясно и безоблачно+28°C35 %749 мм0.9 м/с45 %
    17:00Пасмурно, небольшой дождь+22°C75 %750 мм5.3 м/с44 %
    20:00Пасмурно, ливень+21°C87 %751 мм2.9 м/с40 %
    23:00Облачно с прояснениями, небольшой дождь+20°C93 %752 мм3.0 м/с22 %
  • 23июля
    Вторник
    +15°
    +24°
    Ясно и безоблачно
    ВремяПогодаТемператураВлажностьДавлениеВетер, м/сВероятность осадков
    02:00Ясно и безоблачно+18°C95 %753 мм4.3 м/с20 %
    05:00Практически безоблачно+16°C95 %753 мм3.6 м/с20 %
    08:00Практически безоблачно+18°C83 %754 мм3.1 м/с22 %
    11:00Практически безоблачно+21°C59 %754 мм4.0 м/с30 %
    14:00Ясно и безоблачно+23°C47 %754 мм3.1 м/с35 %
    17:00Ясно и безоблачно+24°C41 %753 мм2.3 м/с29 %
    20:00Ясно и безоблачно+22°C58 %753 мм1.5 м/с22 %
    23:00Практически безоблачно+19°C65 %753 мм0.9 м/с16 %
Мы используем cookies
Соглашаюсь